Promise City, Iowa
Current Conditions -  °F | °C
As of 5:10 AM on Saturday 20 Dec 2014 (Local Time) from KTVK Reporting Station
Haze Haze  
Wind Chill: 26°   Ceiling: 100
Heat Index: 32°   Visibility: 1mi
Dew Point: 32°   Wind: 7mph
Humidity: 100%   Direction: 150°SSE
Pressure: 30.19"   Gusts: NA
Location:  40.75°N, 93.15°W
Report Text: KTVK 201110Z AUTO 15006KT 1SM BR OVC001 00/00 A3019 RMK AO2
Loading
Personal Weather Stations






























Interactive Weather Map New forecast layout! Learn more

10-Day Weather Forecast

Advertisements
Track Severe Weather on mobile